sensor_id;sensor_type;location;lat;lon;timestamp;temperature;humidity
19732;DHT22;10017;54.350;18.532;2022-09-25T00:01:56;10.20;99.90
19732;DHT22;10017;54.350;18.532;2022-09-25T00:04:28;10.20;99.90
19732;DHT22;10017;54.350;18.532;2022-09-25T00:07:00;10.20;99.90
19732;DHT22;10017;54.350;18.532;2022-09-25T00:09:34;10.30;99.90
19732;DHT22;10017;54.350;18.532;2022-09-25T00:12:06;10.30;99.90
19732;DHT22;10017;54.350;18.532;2022-09-25T00:14:37;10.30;99.90
19732;DHT22;10017;54.350;18.532;2022-09-25T00:17:09;10.30;99.90
19732;DHT22;10017;54.350;18.532;2022-09-25T00:19:43;10.30;99.90
19732;DHT22;10017;54.350;18.532;2022-09-25T00:22:22;10.30;99.90
19732;DHT22;10017;54.350;18.532;2022-09-25T00:24:55;10.30;99.90
19732;DHT22;10017;54.350;18.532;2022-09-25T00:27:26;10.30;99.90
19732;DHT22;10017;54.350;18.532;2022-09-25T00:29:58;10.30;99.90
19732;DHT22;10017;54.350;18.532;2022-09-25T00:32:36;10.30;99.90
19732;DHT22;10017;54.350;18.532;2022-09-25T00:35:08;10.30;99.90
19732;DHT22;10017;54.350;18.532;2022-09-25T00:37:42;10.30;99.90
19732;DHT22;10017;54.350;18.532;2022-09-25T00:40:14;10.30;99.90
19732;DHT22;10017;54.350;18.532;2022-09-25T00:42:46;10.30;99.90
19732;DHT22;10017;54.350;18.532;2022-09-25T00:45:18;10.30;99.90
19732;DHT22;10017;54.350;18.532;2022-09-25T00:53:04;10.30;99.90
19732;DHT22;10017;54.350;18.532;2022-09-25T00:55:40;10.40;99.90
19732;DHT22;10017;54.350;18.532;2022-09-25T00:58:16;10.40;99.90
19732;DHT22;10017;54.350;18.532;2022-09-25T01:00:52;10.40;99.90
19732;DHT22;10017;54.350;18.532;2022-09-25T01:03:24;10.30;99.90
19732;DHT22;10017;54.350;18.532;2022-09-25T01:05:56;10.30;99.90
19732;DHT22;10017;54.350;18.532;2022-09-25T01:08:30;10.40;99.90
19732;DHT22;10017;54.350;18.532;2022-09-25T01:11:05;10.40;99.90
19732;DHT22;10017;54.350;18.532;2022-09-25T01:13:36;10.40;99.90
19732;DHT22;10017;54.350;18.532;2022-09-25T01:21:15;10.50;99.90
19732;DHT22;10017;54.350;18.532;2022-09-25T01:29:29;10.50;99.90
19732;DHT22;10017;54.350;18.532;2022-09-25T01:32:28;10.40;99.90
19732;DHT22;10017;54.350;18.532;2022-09-25T01:35:01;10.40;99.90
19732;DHT22;10017;54.350;18.532;2022-09-25T01:37:39;10.40;99.90
19732;DHT22;10017;54.350;18.532;2022-09-25T01:40:25;10.40;99.90
19732;DHT22;10017;54.350;18.532;2022-09-25T01:43:59;10.30;99.90
19732;DHT22;10017;54.350;18.532;2022-09-25T01:46:00;10.30;99.90
19732;DHT22;10017;54.350;18.532;2022-09-25T01:48:33;10.30;99.90
19732;DHT22;10017;54.350;18.532;2022-09-25T01:51:14;10.30;99.90
19732;DHT22;10017;54.350;18.532;2022-09-25T01:53:48;10.20;99.90
19732;DHT22;10017;54.350;18.532;2022-09-25T01:58:54;10.20;99.90
19732;DHT22;10017;54.350;18.532;2022-09-25T02:01:28;10.30;99.90
19732;DHT22;10017;54.350;18.532;2022-09-25T02:04:04;10.30;99.90
19732;DHT22;10017;54.350;18.532;2022-09-25T02:06:38;10.30;99.90
19732;DHT22;10017;54.350;18.532;2022-09-25T02:09:14;10.30;99.90
19732;DHT22;10017;54.350;18.532;2022-09-25T02:11:47;10.30;99.90
19732;DHT22;10017;54.350;18.532;2022-09-25T02:16:53;10.20;99.90
19732;DHT22;10017;54.350;18.532;2022-09-25T02:19:26;10.20;99.90
19732;DHT22;10017;54.350;18.532;2022-09-25T02:22:18;10.20;99.90
19732;DHT22;10017;54.350;18.532;2022-09-25T02:25:05;10.30;99.90
19732;DHT22;10017;54.350;18.532;2022-09-25T02:27:42;10.20;99.90
19732;DHT22;10017;54.350;18.532;2022-09-25T02:30:16;10.30;99.90
19732;DHT22;10017;54.350;18.532;2022-09-25T02:32:47;10.20;99.90
19732;DHT22;10017;54.350;18.532;2022-09-25T02:35:22;10.30;99.90
19732;DHT22;10017;54.350;18.532;2022-09-25T02:37:54;10.30;99.90
19732;DHT22;10017;54.350;18.532;2022-09-25T02:40:50;10.30;99.90
19732;DHT22;10017;54.350;18.532;2022-09-25T02:51:17;10.30;99.90
19732;DHT22;10017;54.350;18.532;2022-09-25T02:58:58;10.30;99.90
19732;DHT22;10017;54.350;18.532;2022-09-25T03:01:33;10.30;99.90
19732;DHT22;10017;54.350;18.532;2022-09-25T03:04:07;10.30;99.90
19732;DHT22;10017;54.350;18.532;2022-09-25T03:06:39;10.30;99.90
19732;DHT22;10017;54.350;18.532;2022-09-25T03:09:12;10.30;99.90
19732;DHT22;10017;54.350;18.532;2022-09-25T03:11:44;10.30;99.90
19732;DHT22;10017;54.350;18.532;2022-09-25T03:14:17;10.30;99.90
19732;DHT22;10017;54.350;18.532;2022-09-25T03:16:55;10.30;99.90
19732;DHT22;10017;54.350;18.532;2022-09-25T03:19:30;10.30;99.90
19732;DHT22;10017;54.350;18.532;2022-09-25T03:22:02;10.30;99.90
19732;DHT22;10017;54.350;18.532;2022-09-25T03:24:33;10.30;99.90
19732;DHT22;10017;54.350;18.532;2022-09-25T03:27:05;10.30;99.90
19732;DHT22;10017;54.350;18.532;2022-09-25T03:29:39;10.30;99.90
19732;DHT22;10017;54.350;18.532;2022-09-25T03:32:11;10.30;99.90
19732;DHT22;10017;54.350;18.532;2022-09-25T03:34:45;10.30;99.90
19732;DHT22;10017;54.350;18.532;2022-09-25T03:37:20;10.30;99.90
19732;DHT22;10017;54.350;18.532;2022-09-25T03:39:51;10.30;99.90
19732;DHT22;10017;54.350;18.532;2022-09-25T03:42:23;10.30;99.90
19732;DHT22;10017;54.350;18.532;2022-09-25T03:44:57;10.30;99.90
19732;DHT22;10017;54.350;18.532;2022-09-25T03:47:29;10.30;99.90
19732;DHT22;10017;54.350;18.532;2022-09-25T03:50:01;10.20;99.90
19732;DHT22;10017;54.350;18.532;2022-09-25T03:52:33;10.20;99.90
19732;DHT22;10017;54.350;18.532;2022-09-25T03:55:05;10.20;99.90
19732;DHT22;10017;54.350;18.532;2022-09-25T03:57:42;10.20;99.90
19732;DHT22;10017;54.350;18.532;2022-09-25T04:00:16;10.20;99.90
19732;DHT22;10017;54.350;18.532;2022-09-25T04:02:48;10.20;99.90
19732;DHT22;10017;54.350;18.532;2022-09-25T04:05:20;10.20;99.90
19732;DHT22;10017;54.350;18.532;2022-09-25T04:07:53;10.20;99.90
19732;DHT22;10017;54.350;18.532;2022-09-25T04:10:25;10.20;99.90
19732;DHT22;10017;54.350;18.532;2022-09-25T04:12:56;10.20;99.90
19732;DHT22;10017;54.350;18.532;2022-09-25T04:15:28;10.20;99.90
19732;DHT22;10017;54.350;18.532;2022-09-25T04:18:00;10.20;99.90
19732;DHT22;10017;54.350;18.532;2022-09-25T04:20:39;10.20;99.90
19732;DHT22;10017;54.350;18.532;2022-09-25T04:23:11;10.20;99.90
19732;DHT22;10017;54.350;18.532;2022-09-25T04:25:42;10.20;99.90
19732;DHT22;10017;54.350;18.532;2022-09-25T04:28:15;10.20;99.90
19732;DHT22;10017;54.350;18.532;2022-09-25T04:30:48;10.30;99.90
19732;DHT22;10017;54.350;18.532;2022-09-25T04:33:20;10.30;99.90
19732;DHT22;10017;54.350;18.532;2022-09-25T04:36:10;10.30;99.90
19732;DHT22;10017;54.350;18.532;2022-09-25T04:38:42;10.30;99.90
19732;DHT22;10017;54.350;18.532;2022-09-25T04:41:16;10.20;99.90
19732;DHT22;10017;54.350;18.532;2022-09-25T04:43:51;10.20;99.90
19732;DHT22;10017;54.350;18.532;2022-09-25T04:46:23;10.30;99.90
19732;DHT22;10017;54.350;18.532;2022-09-25T04:48:55;10.20;99.90
19732;DHT22;10017;54.350;18.532;2022-09-25T04:51:26;10.30;99.90
19732;DHT22;10017;54.350;18.532;2022-09-25T04:54:00;10.30;99.90
19732;DHT22;10017;54.350;18.532;2022-09-25T04:56:32;10.30;99.90
19732;DHT22;10017;54.350;18.532;2022-09-25T04:59:04;10.30;99.90
19732;DHT22;10017;54.350;18.532;2022-09-25T05:01:36;10.40;99.90
19732;DHT22;10017;54.350;18.532;2022-09-25T05:04:07;10.40;99.90
19732;DHT22;10017;54.350;18.532;2022-09-25T05:06:40;10.40;99.90
19732;DHT22;10017;54.350;18.532;2022-09-25T05:09:12;10.40;99.90
19732;DHT22;10017;54.350;18.532;2022-09-25T05:11:46;10.50;99.90
19732;DHT22;10017;54.350;18.532;2022-09-25T05:14:18;10.50;99.90
19732;DHT22;10017;54.350;18.532;2022-09-25T05:16:50;10.50;99.90
19732;DHT22;10017;54.350;18.532;2022-09-25T05:19:22;10.60;99.90
19732;DHT22;10017;54.350;18.532;2022-09-25T05:21:54;10.60;99.90
19732;DHT22;10017;54.350;18.532;2022-09-25T05:24:26;10.60;99.90
19732;DHT22;10017;54.350;18.532;2022-09-25T05:27:00;10.60;99.90
19732;DHT22;10017;54.350;18.532;2022-09-25T05:29:34;10.60;99.90
19732;DHT22;10017;54.350;18.532;2022-09-25T05:32:06;10.70;99.90
19732;DHT22;10017;54.350;18.532;2022-09-25T05:34:38;10.70;99.90
19732;DHT22;10017;54.350;18.532;2022-09-25T05:37:10;10.80;99.90
19732;DHT22;10017;54.350;18.532;2022-09-25T05:39:41;10.80;99.90
19732;DHT22;10017;54.350;18.532;2022-09-25T05:42:13;10.80;99.90
19732;DHT22;10017;54.350;18.532;2022-09-25T05:44:47;10.90;99.90
19732;DHT22;10017;54.350;18.532;2022-09-25T05:47:19;10.90;99.90
19732;DHT22;10017;54.350;18.532;2022-09-25T05:49:51;10.90;99.90
19732;DHT22;10017;54.350;18.532;2022-09-25T05:52:23;10.90;99.90
19732;DHT22;10017;54.350;18.532;2022-09-25T05:54:54;11.00;99.90
19732;DHT22;10017;54.350;18.532;2022-09-25T05:57:29;11.00;99.90
19732;DHT22;10017;54.350;18.532;2022-09-25T06:00:05;11.10;99.90
19732;DHT22;10017;54.350;18.532;2022-09-25T06:02:38;11.10;99.90
19732;DHT22;10017;54.350;18.532;2022-09-25T06:05:12;11.20;99.90
19732;DHT22;10017;54.350;18.532;2022-09-25T06:07:44;11.20;99.90
19732;DHT22;10017;54.350;18.532;2022-09-25T06:10:16;11.30;99.90
19732;DHT22;10017;54.350;18.532;2022-09-25T06:12:50;11.40;99.90
19732;DHT22;10017;54.350;18.532;2022-09-25T06:15:29;11.40;99.90
19732;DHT22;10017;54.350;18.532;2022-09-25T06:18:08;11.50;99.90
19732;DHT22;10017;54.350;18.532;2022-09-25T06:20:39;11.50;99.90
19732;DHT22;10017;54.350;18.532;2022-09-25T06:23:11;11.60;99.90
19732;DHT22;10017;54.350;18.532;2022-09-25T06:25:43;11.70;99.90
19732;DHT22;10017;54.350;18.532;2022-09-25T06:28:18;11.80;99.90
19732;DHT22;10017;54.350;18.532;2022-09-25T06:30:49;11.80;99.90
19732;DHT22;10017;54.350;18.532;2022-09-25T06:33:21;11.90;99.90
19732;DHT22;10017;54.350;18.532;2022-09-25T06:35:53;11.90;99.90
19732;DHT22;10017;54.350;18.532;2022-09-25T06:38:27;11.90;99.90
19732;DHT22;10017;54.350;18.532;2022-09-25T06:40:59;12.00;99.90
19732;DHT22;10017;54.350;18.532;2022-09-25T06:43:31;12.00;99.90
19732;DHT22;10017;54.350;18.532;2022-09-25T06:46:03;12.00;99.90
19732;DHT22;10017;54.350;18.532;2022-09-25T06:48:37;12.00;99.90
19732;DHT22;10017;54.350;18.532;2022-09-25T06:51:11;12.10;99.90
19732;DHT22;10017;54.350;18.532;2022-09-25T06:53:46;12.10;99.90
19732;DHT22;10017;54.350;18.532;2022-09-25T06:56:18;12.10;99.90
19732;DHT22;10017;54.350;18.532;2022-09-25T06:58:50;12.20;99.90
19732;DHT22;10017;54.350;18.532;2022-09-25T07:01:21;12.20;99.90
19732;DHT22;10017;54.350;18.532;2022-09-25T07:03:58;12.30;99.90
19732;DHT22;10017;54.350;18.532;2022-09-25T07:06:29;12.40;99.90
19732;DHT22;10017;54.350;18.532;2022-09-25T07:09:03;12.50;99.90
19732;DHT22;10017;54.350;18.532;2022-09-25T07:11:35;12.50;98.90
19732;DHT22;10017;54.350;18.532;2022-09-25T07:14:08;12.60;93.70
19732;DHT22;10017;54.350;18.532;2022-09-25T07:16:40;12.70;91.80
19732;DHT22;10017;54.350;18.532;2022-09-25T07:19:14;12.80;90.30
19732;DHT22;10017;54.350;18.532;2022-09-25T07:21:48;12.90;81.80
19732;DHT22;10017;54.350;18.532;2022-09-25T07:24:20;13.00;83.80
19732;DHT22;10017;54.350;18.532;2022-09-25T07:26:52;13.10;58.50
19732;DHT22;10017;54.350;18.532;2022-09-25T07:29:24;13.30;81.70
19732;DHT22;10017;54.350;18.532;2022-09-25T07:31:56;13.40;57.50
19732;DHT22;10017;54.350;18.532;2022-09-25T07:34:27;13.50;48.80
19732;DHT22;10017;54.350;18.532;2022-09-25T07:36:59;13.50;99.90
19732;DHT22;10017;54.350;18.532;2022-09-25T07:39:31;13.60;99.90
19732;DHT22;10017;54.350;18.532;2022-09-25T07:42:05;13.80;99.90
19732;DHT22;10017;54.350;18.532;2022-09-25T07:44:37;14.00;77.40
19732;DHT22;10017;54.350;18.532;2022-09-25T07:47:17;14.10;9.40
19732;DHT22;10017;54.350;18.532;2022-09-25T07:49:50;14.30;1.00
19732;DHT22;10017;54.350;18.532;2022-09-25T07:52:24;14.50;1.00
19732;DHT22;10017;54.350;18.532;2022-09-25T07:54:56;14.70;1.00
19732;DHT22;10017;54.350;18.532;2022-09-25T07:57:29;14.90;1.00
19732;DHT22;10017;54.350;18.532;2022-09-25T08:00:01;15.00;1.00
19732;DHT22;10017;54.350;18.532;2022-09-25T08:02:34;15.10;1.00
19732;DHT22;10017;54.350;18.532;2022-09-25T08:05:06;15.20;1.00
19732;DHT22;10017;54.350;18.532;2022-09-25T08:07:38;15.20;1.00
19732;DHT22;10017;54.350;18.532;2022-09-25T08:10:12;15.30;1.00
19732;DHT22;10017;54.350;18.532;2022-09-25T08:12:48;15.40;1.00
19732;DHT22;10017;54.350;18.532;2022-09-25T08:15:20;15.40;1.00
19732;DHT22;10017;54.350;18.532;2022-09-25T08:17:52;15.50;1.00
19732;DHT22;10017;54.350;18.532;2022-09-25T08:20:24;15.50;1.00
19732;DHT22;10017;54.350;18.532;2022-09-25T08:22:56;15.60;1.00
19732;DHT22;10017;54.350;18.532;2022-09-25T08:25:27;15.60;1.00
19732;DHT22;10017;54.350;18.532;2022-09-25T08:27:59;15.70;1.00
19732;DHT22;10017;54.350;18.532;2022-09-25T08:30:31;15.70;1.00
19732;DHT22;10017;54.350;18.532;2022-09-25T08:33:03;15.70;1.00
19732;DHT22;10017;54.350;18.532;2022-09-25T08:35:40;15.80;1.00
19732;DHT22;10017;54.350;18.532;2022-09-25T08:38:12;15.90;1.00
19732;DHT22;10017;54.350;18.532;2022-09-25T08:40:48;16.10;1.00
19732;DHT22;10017;54.350;18.532;2022-09-25T08:43:22;16.20;1.00
19732;DHT22;10017;54.350;18.532;2022-09-25T08:45:55;16.30;1.00
19732;DHT22;10017;54.350;18.532;2022-09-25T08:48:54;16.30;1.00
19732;DHT22;10017;54.350;18.532;2022-09-25T08:51:44;16.40;1.00
19732;DHT22;10017;54.350;18.532;2022-09-25T08:54:24;16.50;1.00
19732;DHT22;10017;54.350;18.532;2022-09-25T08:57:02;16.50;1.00
19732;DHT22;10017;54.350;18.532;2022-09-25T08:59:42;16.60;1.00
19732;DHT22;10017;54.350;18.532;2022-09-25T09:02:15;16.60;1.00
19732;DHT22;10017;54.350;18.532;2022-09-25T09:04:50;16.60;1.00
19732;DHT22;10017;54.350;18.532;2022-09-25T09:10:05;16.80;1.00
19732;DHT22;10017;54.350;18.532;2022-09-25T09:12:43;17.00;1.00
19732;DHT22;10017;54.350;18.532;2022-09-25T09:15:19;17.10;1.00
19732;DHT22;10017;54.350;18.532;2022-09-25T09:17:52;17.10;1.00
19732;DHT22;10017;54.350;18.532;2022-09-25T09:23:21;17.30;1.00
19732;DHT22;10017;54.350;18.532;2022-09-25T09:26:00;17.40;1.00
19732;DHT22;10017;54.350;18.532;2022-09-25T09:28:46;17.40;1.00
19732;DHT22;10017;54.350;18.532;2022-09-25T09:44:20;17.00;1.00
19732;DHT22;10017;54.350;18.532;2022-09-25T09:49:46;17.00;1.00
19732;DHT22;10017;54.350;18.532;2022-09-25T09:52:22;17.10;1.00
19732;DHT22;10017;54.350;18.532;2022-09-25T09:54:59;17.10;1.00
19732;DHT22;10017;54.350;18.532;2022-09-25T09:57:42;17.20;1.00
19732;DHT22;10017;54.350;18.532;2022-09-25T10:00:16;17.30;1.00
19732;DHT22;10017;54.350;18.532;2022-09-25T10:02:53;17.40;1.00
19732;DHT22;10017;54.350;18.532;2022-09-25T10:05:37;17.40;1.00
19732;DHT22;10017;54.350;18.532;2022-09-25T10:08:10;17.50;1.00
19732;DHT22;10017;54.350;18.532;2022-09-25T10:10:42;17.40;1.00
19732;DHT22;10017;54.350;18.532;2022-09-25T10:13:19;17.30;1.00
19732;DHT22;10017;54.350;18.532;2022-09-25T10:15:52;17.10;1.00
19732;DHT22;10017;54.350;18.532;2022-09-25T10:18:27;17.10;1.00
19732;DHT22;10017;54.350;18.532;2022-09-25T10:21:03;17.00;1.00
19732;DHT22;10017;54.350;18.532;2022-09-25T10:23:39;17.10;1.00
19732;DHT22;10017;54.350;18.532;2022-09-25T10:28:58;16.90;1.00
19732;DHT22;10017;54.350;18.532;2022-09-25T10:31:38;17.00;1.00
19732;DHT22;10017;54.350;18.532;2022-09-25T10:36:52;17.10;1.00
19732;DHT22;10017;54.350;18.532;2022-09-25T10:42:35;17.10;1.00
19732;DHT22;10017;54.350;18.532;2022-09-25T10:47:58;17.30;1.00
19732;DHT22;10017;54.350;18.532;2022-09-25T10:51:06;17.30;1.00
19732;DHT22;10017;54.350;18.532;2022-09-25T10:53:40;17.30;1.00
19732;DHT22;10017;54.350;18.532;2022-09-25T10:56:19;17.30;1.00
19732;DHT22;10017;54.350;18.532;2022-09-25T10:58:52;17.30;1.00
19732;DHT22;10017;54.350;18.532;2022-09-25T11:01:33;17.40;1.00
19732;DHT22;10017;54.350;18.532;2022-09-25T11:04:11;17.40;1.00
19732;DHT22;10017;54.350;18.532;2022-09-25T11:06:45;17.50;1.00
19732;DHT22;10017;54.350;18.532;2022-09-25T11:09:19;17.40;1.00
19732;DHT22;10017;54.350;18.532;2022-09-25T11:11:53;17.40;1.00
19732;DHT22;10017;54.350;18.532;2022-09-25T11:14:34;17.40;1.00
19732;DHT22;10017;54.350;18.532;2022-09-25T11:17:08;17.30;1.00
19732;DHT22;10017;54.350;18.532;2022-09-25T11:25:54;17.30;1.00
19732;DHT22;10017;54.350;18.532;2022-09-25T11:33:53;17.30;1.00
19732;DHT22;10017;54.350;18.532;2022-09-25T11:36:27;17.30;1.00
19732;DHT22;10017;54.350;18.532;2022-09-25T11:39:04;17.20;1.00
19732;DHT22;10017;54.350;18.532;2022-09-25T11:42:32;17.20;1.00
19732;DHT22;10017;54.350;18.532;2022-09-25T11:50:11;17.10;1.00
19732;DHT22;10017;54.350;18.532;2022-09-25T11:53:02;17.30;1.00
19732;DHT22;10017;54.350;18.532;2022-09-25T11:58:35;17.60;1.00
19732;DHT22;10017;54.350;18.532;2022-09-25T12:14:59;17.90;1.00
19732;DHT22;10017;54.350;18.532;2022-09-25T12:20:17;18.10;1.00
19732;DHT22;10017;54.350;18.532;2022-09-25T12:25:51;18.00;1.00
19732;DHT22;10017;54.350;18.532;2022-09-25T12:36:36;18.00;1.00
19732;DHT22;10017;54.350;18.532;2022-09-25T12:41:44;17.50;1.00
19732;DHT22;10017;54.350;18.532;2022-09-25T12:46:59;17.20;1.00
19732;DHT22;10017;54.350;18.532;2022-09-25T12:50:15;17.10;1.00
19732;DHT22;10017;54.350;18.532;2022-09-25T12:52:38;17.10;1.00
19732;DHT22;10017;54.350;18.532;2022-09-25T12:57:45;16.90;1.00
19732;DHT22;10017;54.350;18.532;2022-09-25T13:00:23;17.00;1.00
19732;DHT22;10017;54.350;18.532;2022-09-25T13:03:02;17.10;1.00
19732;DHT22;10017;54.350;18.532;2022-09-25T13:06:20;17.10;1.00
19732;DHT22;10017;54.350;18.532;2022-09-25T13:13:47;17.30;1.00
19732;DHT22;10017;54.350;18.532;2022-09-25T13:16:21;17.50;1.00
19732;DHT22;10017;54.350;18.532;2022-09-25T13:19:20;17.60;1.00
19732;DHT22;10017;54.350;18.532;2022-09-25T13:22:09;17.60;1.00
19732;DHT22;10017;54.350;18.532;2022-09-25T13:24:44;17.70;1.00
19732;DHT22;10017;54.350;18.532;2022-09-25T13:27:20;17.90;1.00
19732;DHT22;10017;54.350;18.532;2022-09-25T13:29:56;17.90;1.00
19732;DHT22;10017;54.350;18.532;2022-09-25T13:32:30;17.70;1.00
19732;DHT22;10017;54.350;18.532;2022-09-25T13:35:06;17.40;1.00
19732;DHT22;10017;54.350;18.532;2022-09-25T13:37:53;17.10;1.00
19732;DHT22;10017;54.350;18.532;2022-09-25T13:40:25;17.00;1.00
19732;DHT22;10017;54.350;18.532;2022-09-25T13:43:16;16.80;1.00
19732;DHT22;10017;54.350;18.532;2022-09-25T13:48:43;16.60;1.00
19732;DHT22;10017;54.350;18.532;2022-09-25T13:53:56;16.50;1.00
19732;DHT22;10017;54.350;18.532;2022-09-25T14:04:25;16.60;1.00
19732;DHT22;10017;54.350;18.532;2022-09-25T14:07:12;16.90;1.00
19732;DHT22;10017;54.350;18.532;2022-09-25T14:09:45;17.10;1.00
19732;DHT22;10017;54.350;18.532;2022-09-25T14:17:28;16.60;1.00
19732;DHT22;10017;54.350;18.532;2022-09-25T14:20:05;16.60;1.00
19732;DHT22;10017;54.350;18.532;2022-09-25T14:22:40;16.40;1.00
19732;DHT22;10017;54.350;18.532;2022-09-25T14:25:24;16.40;1.00
19732;DHT22;10017;54.350;18.532;2022-09-25T14:28:01;16.20;1.00
19732;DHT22;10017;54.350;18.532;2022-09-25T14:30:33;16.20;1.00
19732;DHT22;10017;54.350;18.532;2022-09-25T14:33:32;16.10;1.00
19732;DHT22;10017;54.350;18.532;2022-09-25T14:46:51;15.80;1.00
19732;DHT22;10017;54.350;18.532;2022-09-25T14:49:25;15.80;1.00
19732;DHT22;10017;54.350;18.532;2022-09-25T14:52:03;15.80;1.00
19732;DHT22;10017;54.350;18.532;2022-09-25T14:54:37;15.80;1.00
19732;DHT22;10017;54.350;18.532;2022-09-25T14:57:13;15.70;1.00
19732;DHT22;10017;54.350;18.532;2022-09-25T14:59:50;15.70;1.00
19732;DHT22;10017;54.350;18.532;2022-09-25T15:02:27;15.60;1.00
19732;DHT22;10017;54.350;18.532;2022-09-25T15:05:18;15.60;1.00
19732;DHT22;10017;54.350;18.532;2022-09-25T15:07:50;15.50;1.00
19732;DHT22;10017;54.350;18.532;2022-09-25T15:10:27;15.50;1.00
19732;DHT22;10017;54.350;18.532;2022-09-25T15:15:38;15.30;1.00
19732;DHT22;10017;54.350;18.532;2022-09-25T15:18:11;15.30;1.00
19732;DHT22;10017;54.350;18.532;2022-09-25T15:20:46;15.30;1.00
19732;DHT22;10017;54.350;18.532;2022-09-25T15:23:19;15.30;1.00
19732;DHT22;10017;54.350;18.532;2022-09-25T15:25:52;15.30;1.00
19732;DHT22;10017;54.350;18.532;2022-09-25T15:28:25;15.40;1.00
19732;DHT22;10017;54.350;18.532;2022-09-25T15:30:58;15.50;1.00
19732;DHT22;10017;54.350;18.532;2022-09-25T15:33:32;15.60;1.00
19732;DHT22;10017;54.350;18.532;2022-09-25T15:38:39;15.60;1.00
19732;DHT22;10017;54.350;18.532;2022-09-25T15:41:12;15.60;1.00
19732;DHT22;10017;54.350;18.532;2022-09-25T15:43:48;15.70;1.00
19732;DHT22;10017;54.350;18.532;2022-09-25T15:46:26;15.60;1.00
19732;DHT22;10017;54.350;18.532;2022-09-25T15:49:00;15.60;1.00
19732;DHT22;10017;54.350;18.532;2022-09-25T15:51:33;15.60;1.00
19732;DHT22;10017;54.350;18.532;2022-09-25T15:54:19;15.60;1.00
19732;DHT22;10017;54.350;18.532;2022-09-25T15:56:55;15.50;1.00
19732;DHT22;10017;54.350;18.532;2022-09-25T15:59:29;15.40;1.00
19732;DHT22;10017;54.350;18.532;2022-09-25T16:02:06;15.30;1.00
19732;DHT22;10017;54.350;18.532;2022-09-25T16:04:59;15.20;1.00
19732;DHT22;10017;54.350;18.532;2022-09-25T16:07:35;15.00;1.00
19732;DHT22;10017;54.350;18.532;2022-09-25T16:17:58;14.40;8.50
19732;DHT22;10017;54.350;18.532;2022-09-25T16:20:36;14.30;19.20
19732;DHT22;10017;54.350;18.532;2022-09-25T16:23:21;14.20;30.30
19732;DHT22;10017;54.350;18.532;2022-09-25T16:25:55;14.00;41.20
19732;DHT22;10017;54.350;18.532;2022-09-25T16:28:32;13.90;48.20
19732;DHT22;10017;54.350;18.532;2022-09-25T16:31:06;13.80;58.60
19732;DHT22;10017;54.350;18.532;2022-09-25T16:33:42;13.60;70.00
19732;DHT22;10017;54.350;18.532;2022-09-25T16:36:18;13.50;80.90
19732;DHT22;10017;54.350;18.532;2022-09-25T16:41:34;13.30;98.60
19732;DHT22;10017;54.350;18.532;2022-09-25T16:44:52;13.20;99.90
19732;DHT22;10017;54.350;18.532;2022-09-25T16:49:37;13.10;99.90
19732;DHT22;10017;54.350;18.532;2022-09-25T16:52:13;13.00;99.90
19732;DHT22;10017;54.350;18.532;2022-09-25T16:54:53;12.90;99.90
19732;DHT22;10017;54.350;18.532;2022-09-25T16:57:31;12.80;99.90
19732;DHT22;10017;54.350;18.532;2022-09-25T17:00:03;12.70;99.90
19732;DHT22;10017;54.350;18.532;2022-09-25T17:02:37;12.60;99.90
19732;DHT22;10017;54.350;18.532;2022-09-25T17:05:25;12.50;99.90
19732;DHT22;10017;54.350;18.532;2022-09-25T17:07:59;12.40;99.90
19732;DHT22;10017;54.350;18.532;2022-09-25T17:10:33;12.30;99.90
19732;DHT22;10017;54.350;18.532;2022-09-25T17:13:04;12.20;99.90
19732;DHT22;10017;54.350;18.532;2022-09-25T17:15:36;12.20;99.90
19732;DHT22;10017;54.350;18.532;2022-09-25T17:18:16;12.10;99.90
19732;DHT22;10017;54.350;18.532;2022-09-25T17:20:51;12.00;99.90
19732;DHT22;10017;54.350;18.532;2022-09-25T17:23:26;11.90;99.90
19732;DHT22;10017;54.350;18.532;2022-09-25T17:28:32;11.80;99.90
19732;DHT22;10017;54.350;18.532;2022-09-25T17:31:14;11.70;99.90
19732;DHT22;10017;54.350;18.532;2022-09-25T17:33:46;11.60;99.90
19732;DHT22;10017;54.350;18.532;2022-09-25T17:36:20;11.60;99.90
19732;DHT22;10017;54.350;18.532;2022-09-25T17:38:52;11.50;99.90
19732;DHT22;10017;54.350;18.532;2022-09-25T17:43:55;11.40;99.90
19732;DHT22;10017;54.350;18.532;2022-09-25T17:46:29;11.40;99.90
19732;DHT22;10017;54.350;18.532;2022-09-25T17:49:05;11.30;99.90
19732;DHT22;10017;54.350;18.532;2022-09-25T17:51:36;11.30;99.90
19732;DHT22;10017;54.350;18.532;2022-09-25T17:54:09;11.30;99.90
19732;DHT22;10017;54.350;18.532;2022-09-25T17:56:42;11.20;99.90
19732;DHT22;10017;54.350;18.532;2022-09-25T17:59:15;11.20;99.90
19732;DHT22;10017;54.350;18.532;2022-09-25T18:01:47;11.10;99.90
19732;DHT22;10017;54.350;18.532;2022-09-25T18:04:22;11.10;99.90
19732;DHT22;10017;54.350;18.532;2022-09-25T18:06:54;11.00;99.90
19732;DHT22;10017;54.350;18.532;2022-09-25T18:09:27;11.00;99.90
19732;DHT22;10017;54.350;18.532;2022-09-25T18:11:59;10.90;99.90
19732;DHT22;10017;54.350;18.532;2022-09-25T18:14:33;10.90;99.90
19732;DHT22;10017;54.350;18.532;2022-09-25T18:17:05;10.90;99.90
19732;DHT22;10017;54.350;18.532;2022-09-25T18:19:37;10.80;99.90
19732;DHT22;10017;54.350;18.532;2022-09-25T18:22:27;10.70;99.90
19732;DHT22;10017;54.350;18.532;2022-09-25T18:25:01;10.70;99.90
19732;DHT22;10017;54.350;18.532;2022-09-25T18:27:33;10.60;99.90
19732;DHT22;10017;54.350;18.532;2022-09-25T18:30:08;10.60;99.90
19732;DHT22;10017;54.350;18.532;2022-09-25T18:32:41;10.50;99.90
19732;DHT22;10017;54.350;18.532;2022-09-25T18:35:15;10.50;99.90
19732;DHT22;10017;54.350;18.532;2022-09-25T18:37:47;10.40;99.90
19732;DHT22;10017;54.350;18.532;2022-09-25T18:40:19;10.40;99.90
19732;DHT22;10017;54.350;18.532;2022-09-25T18:42:51;10.40;99.90
19732;DHT22;10017;54.350;18.532;2022-09-25T18:45:24;10.40;99.90
19732;DHT22;10017;54.350;18.532;2022-09-25T18:47:55;10.40;99.90
19732;DHT22;10017;54.350;18.532;2022-09-25T18:50:28;10.40;99.90
19732;DHT22;10017;54.350;18.532;2022-09-25T18:53:03;10.30;99.90
19732;DHT22;10017;54.350;18.532;2022-09-25T18:55:36;10.30;99.90
19732;DHT22;10017;54.350;18.532;2022-09-25T18:58:08;10.20;99.90
19732;DHT22;10017;54.350;18.532;2022-09-25T19:00:40;10.20;99.90
19732;DHT22;10017;54.350;18.532;2022-09-25T19:03:13;10.10;99.90
19732;DHT22;10017;54.350;18.532;2022-09-25T19:05:53;10.20;99.90
19732;DHT22;10017;54.350;18.532;2022-09-25T19:08:26;10.10;99.90
19732;DHT22;10017;54.350;18.532;2022-09-25T19:10:58;10.10;99.90
19732;DHT22;10017;54.350;18.532;2022-09-25T19:13:31;10.10;99.90